sensor_id;sensor_type;location;lat;lon;timestamp;P1;durP1;ratioP1;P2;durP2;ratioP2
33413;SDS011;60055;41.884;12.534;2022-09-27T00:01:12;16.17;;;2.90;;
33413;SDS011;60055;41.884;12.534;2022-09-27T00:03:39;12.70;;;2.83;;
33413;SDS011;60055;41.884;12.534;2022-09-27T00:08:38;18.00;;;3.22;;
33413;SDS011;60055;41.884;12.534;2022-09-27T00:11:16;14.85;;;3.08;;
33413;SDS011;60055;41.884;12.534;2022-09-27T00:13:59;13.73;;;2.95;;
33413;SDS011;60055;41.884;12.534;2022-09-27T00:16:26;15.75;;;3.60;;
33413;SDS011;60055;41.884;12.534;2022-09-27T00:18:57;14.10;;;3.72;;
33413;SDS011;60055;41.884;12.534;2022-09-27T00:21:24;12.05;;;3.70;;
33413;SDS011;60055;41.884;12.534;2022-09-27T00:23:50;13.40;;;3.20;;
33413;SDS011;60055;41.884;12.534;2022-09-27T00:26:15;12.52;;;3.47;;
33413;SDS011;60055;41.884;12.534;2022-09-27T00:28:41;14.40;;;3.13;;
33413;SDS011;60055;41.884;12.534;2022-09-27T00:31:17;15.15;;;2.47;;
33413;SDS011;60055;41.884;12.534;2022-09-27T00:33:45;19.10;;;3.22;;
33413;SDS011;60055;41.884;12.534;2022-09-27T00:36:14;17.65;;;3.08;;
33413;SDS011;60055;41.884;12.534;2022-09-27T00:38:41;18.08;;;3.00;;
33413;SDS011;60055;41.884;12.534;2022-09-27T00:41:08;16.63;;;3.00;;
33413;SDS011;60055;41.884;12.534;2022-09-27T00:43:45;17.67;;;2.70;;
33413;SDS011;60055;41.884;12.534;2022-09-27T00:46:24;24.95;;;3.10;;
33413;SDS011;60055;41.884;12.534;2022-09-27T00:48:55;20.10;;;2.97;;
33413;SDS011;60055;41.884;12.534;2022-09-27T00:51:27;17.70;;;3.00;;
33413;SDS011;60055;41.884;12.534;2022-09-27T00:53:53;22.45;;;3.10;;
33413;SDS011;60055;41.884;12.534;2022-09-27T00:56:24;15.27;;;3.00;;
33413;SDS011;60055;41.884;12.534;2022-09-27T00:58:56;16.35;;;2.90;;
33413;SDS011;60055;41.884;12.534;2022-09-27T01:01:31;15.95;;;2.83;;
33413;SDS011;60055;41.884;12.534;2022-09-27T01:06:36;13.07;;;2.75;;
33413;SDS011;60055;41.884;12.534;2022-09-27T01:09:03;19.13;;;3.85;;
33413;SDS011;60055;41.884;12.534;2022-09-27T01:30:17;13.50;;;2.55;;
33413;SDS011;60055;41.884;12.534;2022-09-27T01:40:59;18.17;;;3.15;;
33413;SDS011;60055;41.884;12.534;2022-09-27T01:43:49;15.63;;;3.40;;
33413;SDS011;60055;41.884;12.534;2022-09-27T01:46:25;14.48;;;2.72;;
33413;SDS011;60055;41.884;12.534;2022-09-27T01:49:07;16.30;;;2.95;;
33413;SDS011;60055;41.884;12.534;2022-09-27T01:52:14;21.13;;;3.00;;
33413;SDS011;60055;41.884;12.534;2022-09-27T01:54:44;20.73;;;3.27;;
33413;SDS011;60055;41.884;12.534;2022-09-27T01:57:18;21.65;;;3.33;;
33413;SDS011;60055;41.884;12.534;2022-09-27T01:59:55;20.67;;;3.63;;
33413;SDS011;60055;41.884;12.534;2022-09-27T02:02:32;20.92;;;3.20;;
33413;SDS011;60055;41.884;12.534;2022-09-27T02:05:01;25.88;;;3.40;;
33413;SDS011;60055;41.884;12.534;2022-09-27T02:07:33;18.88;;;3.40;;
33413;SDS011;60055;41.884;12.534;2022-09-27T02:10:06;18.88;;;3.70;;
33413;SDS011;60055;41.884;12.534;2022-09-27T02:15:26;23.48;;;3.65;;
33413;SDS011;60055;41.884;12.534;2022-09-27T02:18:06;26.38;;;3.67;;
33413;SDS011;60055;41.884;12.534;2022-09-27T02:20:40;21.77;;;3.38;;
33413;SDS011;60055;41.884;12.534;2022-09-27T02:23:14;22.23;;;3.50;;
33413;SDS011;60055;41.884;12.534;2022-09-27T02:26:01;22.45;;;3.17;;
33413;SDS011;60055;41.884;12.534;2022-09-27T02:28:32;17.23;;;3.75;;
33413;SDS011;60055;41.884;12.534;2022-09-27T02:31:18;22.90;;;3.35;;
33413;SDS011;60055;41.884;12.534;2022-09-27T02:36:33;15.95;;;3.35;;
33413;SDS011;60055;41.884;12.534;2022-09-27T02:38:58;23.23;;;3.53;;
33413;SDS011;60055;41.884;12.534;2022-09-27T02:41:25;23.33;;;3.42;;
33413;SDS011;60055;41.884;12.534;2022-09-27T02:43:58;16.60;;;3.35;;
33413;SDS011;60055;41.884;12.534;2022-09-27T03:01:18;21.15;;;3.72;;
33413;SDS011;60055;41.884;12.534;2022-09-27T03:06:36;20.60;;;4.18;;
33413;SDS011;60055;41.884;12.534;2022-09-27T03:09:04;23.60;;;3.83;;
33413;SDS011;60055;41.884;12.534;2022-09-27T03:11:41;25.90;;;4.03;;
33413;SDS011;60055;41.884;12.534;2022-09-27T03:14:07;21.65;;;3.53;;
33413;SDS011;60055;41.884;12.534;2022-09-27T03:16:33;21.58;;;3.58;;
33413;SDS011;60055;41.884;12.534;2022-09-27T03:18:59;23.15;;;3.88;;
33413;SDS011;60055;41.884;12.534;2022-09-27T03:21:25;20.33;;;3.88;;
33413;SDS011;60055;41.884;12.534;2022-09-27T03:23:52;21.83;;;4.20;;
33413;SDS011;60055;41.884;12.534;2022-09-27T03:26:17;25.17;;;4.15;;
33413;SDS011;60055;41.884;12.534;2022-09-27T03:28:43;20.05;;;3.70;;
33413;SDS011;60055;41.884;12.534;2022-09-27T03:31:09;26.95;;;3.83;;
33413;SDS011;60055;41.884;12.534;2022-09-27T03:33:34;23.15;;;3.58;;
33413;SDS011;60055;41.884;12.534;2022-09-27T03:36:00;23.13;;;4.10;;
33413;SDS011;60055;41.884;12.534;2022-09-27T03:38:27;17.42;;;3.65;;
33413;SDS011;60055;41.884;12.534;2022-09-27T03:40:53;17.80;;;3.50;;
33413;SDS011;60055;41.884;12.534;2022-09-27T03:43:18;16.88;;;3.47;;
33413;SDS011;60055;41.884;12.534;2022-09-27T03:45:44;17.35;;;3.78;;
33413;SDS011;60055;41.884;12.534;2022-09-27T03:48:10;19.70;;;3.72;;
33413;SDS011;60055;41.884;12.534;2022-09-27T03:50:36;26.05;;;4.28;;
33413;SDS011;60055;41.884;12.534;2022-09-27T03:53:03;28.48;;;4.55;;
33413;SDS011;60055;41.884;12.534;2022-09-27T03:55:29;23.88;;;4.05;;
33413;SDS011;60055;41.884;12.534;2022-09-27T03:57:55;16.45;;;4.00;;
33413;SDS011;60055;41.884;12.534;2022-09-27T04:00:23;25.92;;;4.68;;
33413;SDS011;60055;41.884;12.534;2022-09-27T04:02:50;29.30;;;5.07;;
33413;SDS011;60055;41.884;12.534;2022-09-27T04:05:15;24.80;;;4.13;;
33413;SDS011;60055;41.884;12.534;2022-09-27T04:07:45;23.33;;;4.13;;
33413;SDS011;60055;41.884;12.534;2022-09-27T04:10:12;22.00;;;4.20;;
33413;SDS011;60055;41.884;12.534;2022-09-27T04:12:38;24.80;;;4.00;;
33413;SDS011;60055;41.884;12.534;2022-09-27T04:15:04;18.88;;;3.97;;
33413;SDS011;60055;41.884;12.534;2022-09-27T04:17:32;21.33;;;4.32;;
33413;SDS011;60055;41.884;12.534;2022-09-27T04:19:58;21.92;;;4.50;;
33413;SDS011;60055;41.884;12.534;2022-09-27T04:22:27;26.52;;;4.63;;
33413;SDS011;60055;41.884;12.534;2022-09-27T04:24:53;22.02;;;4.40;;
33413;SDS011;60055;41.884;12.534;2022-09-27T04:27:19;28.52;;;4.68;;
33413;SDS011;60055;41.884;12.534;2022-09-27T04:29:46;23.70;;;4.38;;
33413;SDS011;60055;41.884;12.534;2022-09-27T04:32:12;18.23;;;4.10;;
33413;SDS011;60055;41.884;12.534;2022-09-27T04:34:38;19.83;;;4.03;;
33413;SDS011;60055;41.884;12.534;2022-09-27T04:37:23;24.75;;;4.38;;
33413;SDS011;60055;41.884;12.534;2022-09-27T04:39:49;22.42;;;4.15;;
33413;SDS011;60055;41.884;12.534;2022-09-27T04:42:15;19.10;;;3.88;;
33413;SDS011;60055;41.884;12.534;2022-09-27T04:44:42;24.83;;;4.05;;
33413;SDS011;60055;41.884;12.534;2022-09-27T04:47:08;25.17;;;4.22;;
33413;SDS011;60055;41.884;12.534;2022-09-27T04:49:33;23.20;;;3.97;;
33413;SDS011;60055;41.884;12.534;2022-09-27T04:51:59;19.40;;;4.13;;
33413;SDS011;60055;41.884;12.534;2022-09-27T04:54:25;15.88;;;3.70;;
33413;SDS011;60055;41.884;12.534;2022-09-27T04:56:51;22.58;;;3.83;;
33413;SDS011;60055;41.884;12.534;2022-09-27T04:59:17;24.33;;;4.18;;
33413;SDS011;60055;41.884;12.534;2022-09-27T05:01:42;26.50;;;4.97;;
33413;SDS011;60055;41.884;12.534;2022-09-27T05:04:09;22.58;;;4.50;;
33413;SDS011;60055;41.884;12.534;2022-09-27T05:06:34;19.63;;;3.85;;
33413;SDS011;60055;41.884;12.534;2022-09-27T05:09:00;21.13;;;3.78;;
33413;SDS011;60055;41.884;12.534;2022-09-27T05:11:26;24.00;;;3.72;;
33413;SDS011;60055;41.884;12.534;2022-09-27T05:13:51;22.98;;;4.45;;
33413;SDS011;60055;41.884;12.534;2022-09-27T05:16:17;24.08;;;4.28;;
33413;SDS011;60055;41.884;12.534;2022-09-27T05:18:44;26.63;;;4.32;;
33413;SDS011;60055;41.884;12.534;2022-09-27T05:21:09;24.15;;;4.13;;
33413;SDS011;60055;41.884;12.534;2022-09-27T05:23:35;18.73;;;4.60;;
33413;SDS011;60055;41.884;12.534;2022-09-27T05:26:04;20.23;;;4.18;;
33413;SDS011;60055;41.884;12.534;2022-09-27T05:28:31;25.65;;;4.90;;
33413;SDS011;60055;41.884;12.534;2022-09-27T05:30:59;22.35;;;4.53;;
33413;SDS011;60055;41.884;12.534;2022-09-27T05:33:25;21.88;;;4.13;;
33413;SDS011;60055;41.884;12.534;2022-09-27T05:35:55;21.80;;;4.25;;
33413;SDS011;60055;41.884;12.534;2022-09-27T05:38:22;19.90;;;4.10;;
33413;SDS011;60055;41.884;12.534;2022-09-27T05:40:49;23.60;;;4.50;;
33413;SDS011;60055;41.884;12.534;2022-09-27T05:43:16;19.70;;;4.30;;
33413;SDS011;60055;41.884;12.534;2022-09-27T05:45:44;25.58;;;4.88;;
33413;SDS011;60055;41.884;12.534;2022-09-27T05:48:10;25.60;;;4.68;;
33413;SDS011;60055;41.884;12.534;2022-09-27T05:50:38;21.58;;;5.72;;
33413;SDS011;60055;41.884;12.534;2022-09-27T05:53:03;19.02;;;4.50;;
33413;SDS011;60055;41.884;12.534;2022-09-27T05:55:29;21.85;;;4.97;;
33413;SDS011;60055;41.884;12.534;2022-09-27T06:00:22;21.55;;;4.78;;
33413;SDS011;60055;41.884;12.534;2022-09-27T06:02:57;19.85;;;4.25;;
33413;SDS011;60055;41.884;12.534;2022-09-27T06:05:34;23.60;;;4.38;;
33413;SDS011;60055;41.884;12.534;2022-09-27T06:08:02;23.33;;;4.43;;
33413;SDS011;60055;41.884;12.534;2022-09-27T06:10:30;22.63;;;3.97;;
33413;SDS011;60055;41.884;12.534;2022-09-27T06:12:59;23.85;;;4.35;;
33413;SDS011;60055;41.884;12.534;2022-09-27T06:15:33;28.60;;;4.47;;
33413;SDS011;60055;41.884;12.534;2022-09-27T06:18:02;22.27;;;4.07;;
33413;SDS011;60055;41.884;12.534;2022-09-27T06:20:35;28.08;;;4.57;;
33413;SDS011;60055;41.884;12.534;2022-09-27T06:23:04;28.90;;;4.50;;
33413;SDS011;60055;41.884;12.534;2022-09-27T06:25:31;21.73;;;4.70;;
33413;SDS011;60055;41.884;12.534;2022-09-27T06:27:57;22.85;;;4.22;;
33413;SDS011;60055;41.884;12.534;2022-09-27T06:30:23;20.92;;;4.68;;
33413;SDS011;60055;41.884;12.534;2022-09-27T06:32:53;28.15;;;4.03;;
33413;SDS011;60055;41.884;12.534;2022-09-27T06:35:20;18.98;;;4.90;;
33413;SDS011;60055;41.884;12.534;2022-09-27T06:37:49;23.92;;;5.60;;
33413;SDS011;60055;41.884;12.534;2022-09-27T06:40:15;26.73;;;5.32;;
33413;SDS011;60055;41.884;12.534;2022-09-27T06:42:42;21.92;;;4.45;;
33413;SDS011;60055;41.884;12.534;2022-09-27T06:45:08;20.92;;;4.00;;
33413;SDS011;60055;41.884;12.534;2022-09-27T06:47:37;27.27;;;5.72;;
33413;SDS011;60055;41.884;12.534;2022-09-27T06:50:04;20.10;;;4.22;;
33413;SDS011;60055;41.884;12.534;2022-09-27T06:52:33;29.02;;;7.63;;
33413;SDS011;60055;41.884;12.534;2022-09-27T06:55:01;23.45;;;5.28;;
33413;SDS011;60055;41.884;12.534;2022-09-27T06:57:28;19.50;;;4.32;;
33413;SDS011;60055;41.884;12.534;2022-09-27T07:00:12;24.00;;;4.18;;
33413;SDS011;60055;41.884;12.534;2022-09-27T07:02:47;16.83;;;4.68;;
33413;SDS011;60055;41.884;12.534;2022-09-27T07:05:15;21.27;;;4.03;;
33413;SDS011;60055;41.884;12.534;2022-09-27T07:07:41;16.95;;;4.40;;
33413;SDS011;60055;41.884;12.534;2022-09-27T07:10:08;28.77;;;4.72;;
33413;SDS011;60055;41.884;12.534;2022-09-27T07:12:35;16.80;;;3.55;;
33413;SDS011;60055;41.884;12.534;2022-09-27T07:15:01;22.83;;;4.03;;
33413;SDS011;60055;41.884;12.534;2022-09-27T07:17:26;24.65;;;3.83;;
33413;SDS011;60055;41.884;12.534;2022-09-27T07:19:52;21.50;;;3.72;;
33413;SDS011;60055;41.884;12.534;2022-09-27T07:22:18;20.48;;;3.78;;
33413;SDS011;60055;41.884;12.534;2022-09-27T07:24:44;23.20;;;4.35;;
33413;SDS011;60055;41.884;12.534;2022-09-27T07:27:10;22.45;;;4.22;;
33413;SDS011;60055;41.884;12.534;2022-09-27T07:29:35;20.42;;;4.22;;
33413;SDS011;60055;41.884;12.534;2022-09-27T07:32:01;23.70;;;4.30;;
33413;SDS011;60055;41.884;12.534;2022-09-27T07:34:28;18.73;;;3.70;;
33413;SDS011;60055;41.884;12.534;2022-09-27T07:37:00;21.25;;;4.03;;
33413;SDS011;60055;41.884;12.534;2022-09-27T07:39:27;19.10;;;4.88;;
33413;SDS011;60055;41.884;12.534;2022-09-27T07:41:53;20.38;;;5.05;;
33413;SDS011;60055;41.884;12.534;2022-09-27T07:44:18;15.40;;;3.75;;
33413;SDS011;60055;41.884;12.534;2022-09-27T07:46:44;17.52;;;3.40;;
33413;SDS011;60055;41.884;12.534;2022-09-27T07:49:11;18.10;;;3.45;;
33413;SDS011;60055;41.884;12.534;2022-09-27T07:51:37;19.95;;;3.33;;
33413;SDS011;60055;41.884;12.534;2022-09-27T07:54:03;19.98;;;3.85;;
33413;SDS011;60055;41.884;12.534;2022-09-27T07:56:30;20.23;;;3.35;;
33413;SDS011;60055;41.884;12.534;2022-09-27T07:58:55;18.52;;;3.10;;
33413;SDS011;60055;41.884;12.534;2022-09-27T08:01:21;22.48;;;3.58;;
33413;SDS011;60055;41.884;12.534;2022-09-27T08:03:46;14.93;;;3.15;;
33413;SDS011;60055;41.884;12.534;2022-09-27T08:06:13;12.98;;;2.38;;
33413;SDS011;60055;41.884;12.534;2022-09-27T08:08:38;13.05;;;2.75;;
33413;SDS011;60055;41.884;12.534;2022-09-27T08:11:11;15.00;;;3.03;;
33413;SDS011;60055;41.884;12.534;2022-09-27T08:13:39;11.20;;;2.65;;
33413;SDS011;60055;41.884;12.534;2022-09-27T08:16:08;17.33;;;3.42;;
33413;SDS011;60055;41.884;12.534;2022-09-27T08:18:35;14.65;;;2.70;;
33413;SDS011;60055;41.884;12.534;2022-09-27T08:21:01;21.50;;;2.95;;
33413;SDS011;60055;41.884;12.534;2022-09-27T08:23:29;17.38;;;2.40;;
33413;SDS011;60055;41.884;12.534;2022-09-27T08:25:55;13.00;;;2.97;;
33413;SDS011;60055;41.884;12.534;2022-09-27T08:28:28;16.98;;;3.33;;
33413;SDS011;60055;41.884;12.534;2022-09-27T08:30:56;14.80;;;2.88;;
33413;SDS011;60055;41.884;12.534;2022-09-27T08:33:23;16.33;;;3.03;;
33413;SDS011;60055;41.884;12.534;2022-09-27T08:35:50;12.93;;;3.00;;
33413;SDS011;60055;41.884;12.534;2022-09-27T08:38:15;19.15;;;3.30;;
33413;SDS011;60055;41.884;12.534;2022-09-27T08:40:47;16.10;;;3.15;;
33413;SDS011;60055;41.884;12.534;2022-09-27T08:46:14;22.33;;;2.63;;
33413;SDS011;60055;41.884;12.534;2022-09-27T08:48:43;16.65;;;2.70;;
33413;SDS011;60055;41.884;12.534;2022-09-27T08:51:15;16.63;;;3.33;;
33413;SDS011;60055;41.884;12.534;2022-09-27T08:53:50;16.90;;;2.78;;
33413;SDS011;60055;41.884;12.534;2022-09-27T08:56:23;13.02;;;2.40;;
33413;SDS011;60055;41.884;12.534;2022-09-27T08:58:50;17.80;;;2.88;;
33413;SDS011;60055;41.884;12.534;2022-09-27T09:01:29;16.63;;;3.33;;
33413;SDS011;60055;41.884;12.534;2022-09-27T09:03:56;16.42;;;3.17;;
33413;SDS011;60055;41.884;12.534;2022-09-27T09:22:50;19.83;;;4.57;;
33413;SDS011;60055;41.884;12.534;2022-09-27T09:28:41;13.75;;;2.92;;
33413;SDS011;60055;41.884;12.534;2022-09-27T09:33:57;11.80;;;2.35;;
33413;SDS011;60055;41.884;12.534;2022-09-27T09:36:45;15.02;;;2.30;;
33413;SDS011;60055;41.884;12.534;2022-09-27T09:39:15;17.50;;;2.75;;
33413;SDS011;60055;41.884;12.534;2022-09-27T09:41:58;11.55;;;2.22;;
33413;SDS011;60055;41.884;12.534;2022-09-27T09:48:04;13.10;;;2.22;;
33413;SDS011;60055;41.884;12.534;2022-09-27T09:50:29;14.82;;;2.58;;
33413;SDS011;60055;41.884;12.534;2022-09-27T09:53:04;9.60;;;2.30;;
33413;SDS011;60055;41.884;12.534;2022-09-27T09:55:41;15.68;;;3.15;;
33413;SDS011;60055;41.884;12.534;2022-09-27T09:58:19;17.23;;;2.47;;
33413;SDS011;60055;41.884;12.534;2022-09-27T10:00:53;13.82;;;3.03;;
33413;SDS011;60055;41.884;12.534;2022-09-27T10:03:24;17.17;;;2.60;;
33413;SDS011;60055;41.884;12.534;2022-09-27T10:05:50;18.90;;;2.92;;
33413;SDS011;60055;41.884;12.534;2022-09-27T10:08:20;16.17;;;2.50;;
33413;SDS011;60055;41.884;12.534;2022-09-27T10:10:46;14.45;;;2.53;;
33413;SDS011;60055;41.884;12.534;2022-09-27T10:13:16;18.23;;;2.90;;
33413;SDS011;60055;41.884;12.534;2022-09-27T10:16:06;17.95;;;3.17;;
33413;SDS011;60055;41.884;12.534;2022-09-27T10:18:35;18.63;;;2.92;;
33413;SDS011;60055;41.884;12.534;2022-09-27T10:21:26;15.95;;;2.50;;
33413;SDS011;60055;41.884;12.534;2022-09-27T10:26:35;14.57;;;2.67;;
33413;SDS011;60055;41.884;12.534;2022-09-27T10:29:49;20.48;;;3.28;;
33413;SDS011;60055;41.884;12.534;2022-09-27T10:31:56;23.77;;;4.53;;
33413;SDS011;60055;41.884;12.534;2022-09-27T10:39:50;19.70;;;2.70;;
33413;SDS011;60055;41.884;12.534;2022-09-27T10:48:00;17.20;;;2.85;;
33413;SDS011;60055;41.884;12.534;2022-09-27T10:50:27;21.88;;;3.10;;
33413;SDS011;60055;41.884;12.534;2022-09-27T10:53:15;17.70;;;2.83;;
33413;SDS011;60055;41.884;12.534;2022-09-27T10:55:48;13.35;;;2.50;;
33413;SDS011;60055;41.884;12.534;2022-09-27T10:58:17;19.23;;;2.60;;
33413;SDS011;60055;41.884;12.534;2022-09-27T11:01:05;19.02;;;3.08;;
33413;SDS011;60055;41.884;12.534;2022-09-27T11:03:37;13.82;;;2.47;;
33413;SDS011;60055;41.884;12.534;2022-09-27T11:08:48;18.25;;;2.75;;
33413;SDS011;60055;41.884;12.534;2022-09-27T11:11:24;18.77;;;2.75;;
33413;SDS011;60055;41.884;12.534;2022-09-27T11:13:59;17.23;;;2.53;;
33413;SDS011;60055;41.884;12.534;2022-09-27T11:24:42;15.73;;;2.83;;
33413;SDS011;60055;41.884;12.534;2022-09-27T11:30:11;16.98;;;2.63;;
33413;SDS011;60055;41.884;12.534;2022-09-27T11:32:49;13.63;;;2.70;;
33413;SDS011;60055;41.884;12.534;2022-09-27T11:49:48;21.92;;;3.08;;
33413;SDS011;60055;41.884;12.534;2022-09-27T12:00:54;19.45;;;3.55;;
33413;SDS011;60055;41.884;12.534;2022-09-27T12:06:35;17.63;;;3.28;;
33413;SDS011;60055;41.884;12.534;2022-09-27T12:09:21;20.33;;;3.03;;
33413;SDS011;60055;41.884;12.534;2022-09-27T12:12:14;18.00;;;3.40;;
33413;SDS011;60055;41.884;12.534;2022-09-27T12:17:21;20.58;;;3.65;;
33413;SDS011;60055;41.884;12.534;2022-09-27T12:19:52;25.02;;;4.00;;
33413;SDS011;60055;41.884;12.534;2022-09-27T12:22:33;24.73;;;3.53;;
33413;SDS011;60055;41.884;12.534;2022-09-27T12:25:04;20.75;;;3.58;;
33413;SDS011;60055;41.884;12.534;2022-09-27T12:27:42;23.67;;;3.42;;
33413;SDS011;60055;41.884;12.534;2022-09-27T12:30:15;23.27;;;3.50;;
33413;SDS011;60055;41.884;12.534;2022-09-27T12:35:26;23.45;;;3.05;;
33413;SDS011;60055;41.884;12.534;2022-09-27T12:40:48;27.85;;;3.33;;
33413;SDS011;60055;41.884;12.534;2022-09-27T12:43:21;20.70;;;3.53;;
33413;SDS011;60055;41.884;12.534;2022-09-27T12:51:57;21.50;;;3.40;;
33413;SDS011;60055;41.884;12.534;2022-09-27T13:13:34;22.05;;;3.00;;
33413;SDS011;60055;41.884;12.534;2022-09-27T13:16:02;25.75;;;3.28;;
33413;SDS011;60055;41.884;12.534;2022-09-27T13:21:14;16.33;;;2.80;;
33413;SDS011;60055;41.884;12.534;2022-09-27T13:24:41;20.08;;;3.38;;
33413;SDS011;60055;41.884;12.534;2022-09-27T13:29:48;26.27;;;3.22;;
33413;SDS011;60055;41.884;12.534;2022-09-27T13:32:18;18.40;;;3.00;;
33413;SDS011;60055;41.884;12.534;2022-09-27T13:34:47;23.55;;;3.22;;
33413;SDS011;60055;41.884;12.534;2022-09-27T13:37:22;17.13;;;3.60;;
33413;SDS011;60055;41.884;12.534;2022-09-27T13:40:10;18.13;;;3.20;;
33413;SDS011;60055;41.884;12.534;2022-09-27T13:48:29;16.27;;;2.63;;
33413;SDS011;60055;41.884;12.534;2022-09-27T13:51:15;21.13;;;3.50;;
33413;SDS011;60055;41.884;12.534;2022-09-27T13:53:54;15.93;;;2.95;;
33413;SDS011;60055;41.884;12.534;2022-09-27T13:59:08;17.02;;;2.30;;
33413;SDS011;60055;41.884;12.534;2022-09-27T14:01:40;15.68;;;2.60;;
33413;SDS011;60055;41.884;12.534;2022-09-27T14:04:25;14.23;;;2.72;;
33413;SDS011;60055;41.884;12.534;2022-09-27T14:06:57;14.10;;;2.13;;
33413;SDS011;60055;41.884;12.534;2022-09-27T14:09:36;17.00;;;2.28;;
33413;SDS011;60055;41.884;12.534;2022-09-27T14:12:11;17.35;;;2.25;;
33413;SDS011;60055;41.884;12.534;2022-09-27T14:14:45;13.85;;;2.63;;
33413;SDS011;60055;41.884;12.534;2022-09-27T14:17:13;13.23;;;2.28;;
33413;SDS011;60055;41.884;12.534;2022-09-27T14:19:42;16.50;;;2.50;;
33413;SDS011;60055;41.884;12.534;2022-09-27T14:22:13;20.05;;;2.88;;
33413;SDS011;60055;41.884;12.534;2022-09-27T14:27:13;19.88;;;2.67;;
33413;SDS011;60055;41.884;12.534;2022-09-27T14:30:00;13.07;;;2.63;;
33413;SDS011;60055;41.884;12.534;2022-09-27T14:32:51;21.25;;;3.05;;
33413;SDS011;60055;41.884;12.534;2022-09-27T14:35:28;12.75;;;2.47;;
33413;SDS011;60055;41.884;12.534;2022-09-27T14:38:17;20.15;;;3.10;;
33413;SDS011;60055;41.884;12.534;2022-09-27T14:40:57;18.15;;;3.05;;
33413;SDS011;60055;41.884;12.534;2022-09-27T14:43:25;14.55;;;2.40;;
33413;SDS011;60055;41.884;12.534;2022-09-27T14:45:52;16.20;;;2.60;;
33413;SDS011;60055;41.884;12.534;2022-09-27T14:48:27;21.15;;;2.60;;
33413;SDS011;60055;41.884;12.534;2022-09-27T14:53:34;21.67;;;2.95;;
33413;SDS011;60055;41.884;12.534;2022-09-27T14:56:06;31.98;;;3.50;;
33413;SDS011;60055;41.884;12.534;2022-09-27T14:58:42;18.23;;;2.90;;
33413;SDS011;60055;41.884;12.534;2022-09-27T15:01:13;21.83;;;3.30;;
33413;SDS011;60055;41.884;12.534;2022-09-27T15:03:40;13.23;;;2.38;;
33413;SDS011;60055;41.884;12.534;2022-09-27T15:06:08;22.55;;;3.15;;
33413;SDS011;60055;41.884;12.534;2022-09-27T15:08:34;19.55;;;3.00;;
33413;SDS011;60055;41.884;12.534;2022-09-27T15:11:02;21.55;;;3.75;;
33413;SDS011;60055;41.884;12.534;2022-09-27T15:13:31;20.60;;;3.33;;
33413;SDS011;60055;41.884;12.534;2022-09-27T15:15:58;27.08;;;3.42;;
33413;SDS011;60055;41.884;12.534;2022-09-27T15:18:32;26.20;;;3.60;;
33413;SDS011;60055;41.884;12.534;2022-09-27T15:21:10;26.65;;;3.65;;
33413;SDS011;60055;41.884;12.534;2022-09-27T15:23:41;25.25;;;4.00;;
33413;SDS011;60055;41.884;12.534;2022-09-27T15:29:18;26.38;;;3.88;;
33413;SDS011;60055;41.884;12.534;2022-09-27T15:31:55;26.75;;;3.92;;
33413;SDS011;60055;41.884;12.534;2022-09-27T15:34:27;21.70;;;3.80;;
33413;SDS011;60055;41.884;12.534;2022-09-27T15:36:54;20.73;;;4.75;;
33413;SDS011;60055;41.884;12.534;2022-09-27T15:42:09;26.55;;;4.28;;
33413;SDS011;60055;41.884;12.534;2022-09-27T15:52:48;39.15;;;5.65;;
33413;SDS011;60055;41.884;12.534;2022-09-27T15:55:16;35.33;;;4.88;;
33413;SDS011;60055;41.884;12.534;2022-09-27T15:57:44;32.50;;;4.95;;
33413;SDS011;60055;41.884;12.534;2022-09-27T16:00:14;34.58;;;5.28;;
33413;SDS011;60055;41.884;12.534;2022-09-27T16:02:42;38.22;;;4.65;;
33413;SDS011;60055;41.884;12.534;2022-09-27T16:05:08;37.88;;;4.82;;
33413;SDS011;60055;41.884;12.534;2022-09-27T16:07:34;35.35;;;5.05;;
33413;SDS011;60055;41.884;12.534;2022-09-27T16:10:00;38.97;;;5.07;;
33413;SDS011;60055;41.884;12.534;2022-09-27T16:12:26;34.40;;;5.03;;
33413;SDS011;60055;41.884;12.534;2022-09-27T16:14:54;29.73;;;5.05;;
33413;SDS011;60055;41.884;12.534;2022-09-27T16:17:24;30.73;;;4.82;;
33413;SDS011;60055;41.884;12.534;2022-09-27T16:19:50;32.22;;;4.75;;
33413;SDS011;60055;41.884;12.534;2022-09-27T16:22:16;24.48;;;5.22;;
33413;SDS011;60055;41.884;12.534;2022-09-27T16:24:41;32.10;;;4.90;;
33413;SDS011;60055;41.884;12.534;2022-09-27T16:27:07;27.08;;;4.75;;
33413;SDS011;60055;41.884;12.534;2022-09-27T16:29:35;29.83;;;5.72;;
33413;SDS011;60055;41.884;12.534;2022-09-27T16:32:00;30.23;;;4.63;;
33413;SDS011;60055;41.884;12.534;2022-09-27T16:34:32;29.25;;;4.32;;
33413;SDS011;60055;41.884;12.534;2022-09-27T16:36:57;28.67;;;4.82;;
33413;SDS011;60055;41.884;12.534;2022-09-27T16:39:23;26.50;;;3.95;;
33413;SDS011;60055;41.884;12.534;2022-09-27T16:41:49;31.05;;;4.75;;
33413;SDS011;60055;41.884;12.534;2022-09-27T16:44:16;39.67;;;5.15;;
33413;SDS011;60055;41.884;12.534;2022-09-27T16:46:42;26.75;;;4.57;;
33413;SDS011;60055;41.884;12.534;2022-09-27T16:49:10;25.48;;;4.10;;
33413;SDS011;60055;41.884;12.534;2022-09-27T16:51:55;29.02;;;4.35;;
33413;SDS011;60055;41.884;12.534;2022-09-27T16:54:23;30.45;;;4.07;;
33413;SDS011;60055;41.884;12.534;2022-09-27T16:56:49;32.63;;;4.68;;
33413;SDS011;60055;41.884;12.534;2022-09-27T16:59:15;23.67;;;4.15;;
33413;SDS011;60055;41.884;12.534;2022-09-27T17:01:42;25.88;;;4.00;;
33413;SDS011;60055;41.884;12.534;2022-09-27T17:04:07;34.95;;;4.60;;
33413;SDS011;60055;41.884;12.534;2022-09-27T17:06:34;27.90;;;4.40;;
33413;SDS011;60055;41.884;12.534;2022-09-27T17:09:02;29.77;;;5.10;;
33413;SDS011;60055;41.884;12.534;2022-09-27T17:14:04;26.85;;;4.78;;
33413;SDS011;60055;41.884;12.534;2022-09-27T17:19:26;29.67;;;4.60;;
33413;SDS011;60055;41.884;12.534;2022-09-27T17:21:57;34.47;;;4.50;;
33413;SDS011;60055;41.884;12.534;2022-09-27T17:24:25;32.17;;;5.28;;
33413;SDS011;60055;41.884;12.534;2022-09-27T17:26:51;29.38;;;4.38;;
33413;SDS011;60055;41.884;12.534;2022-09-27T17:29:19;28.15;;;4.82;;
33413;SDS011;60055;41.884;12.534;2022-09-27T17:31:45;38.13;;;4.63;;
33413;SDS011;60055;41.884;12.534;2022-09-27T17:34:12;25.38;;;4.53;;
33413;SDS011;60055;41.884;12.534;2022-09-27T17:36:40;24.85;;;4.60;;
33413;SDS011;60055;41.884;12.534;2022-09-27T17:39:11;33.17;;;5.13;;
33413;SDS011;60055;41.884;12.534;2022-09-27T17:41:43;32.13;;;4.45;;
33413;SDS011;60055;41.884;12.534;2022-09-27T17:44:12;26.58;;;4.47;;
33413;SDS011;60055;41.884;12.534;2022-09-27T17:46:40;32.72;;;4.78;;
33413;SDS011;60055;41.884;12.534;2022-09-27T17:49:06;32.78;;;4.90;;
33413;SDS011;60055;41.884;12.534;2022-09-27T17:51:54;37.40;;;5.13;;
33413;SDS011;60055;41.884;12.534;2022-09-27T17:54:21;30.40;;;4.38;;
33413;SDS011;60055;41.884;12.534;2022-09-27T17:56:48;32.42;;;4.95;;
33413;SDS011;60055;41.884;12.534;2022-09-27T17:59:16;29.83;;;4.63;;
33413;SDS011;60055;41.884;12.534;2022-09-27T18:01:43;31.40;;;4.82;;
33413;SDS011;60055;41.884;12.534;2022-09-27T18:04:14;30.92;;;4.45;;
33413;SDS011;60055;41.884;12.534;2022-09-27T18:06:44;28.67;;;4.72;;
33413;SDS011;60055;41.884;12.534;2022-09-27T18:09:11;30.00;;;4.70;;
33413;SDS011;60055;41.884;12.534;2022-09-27T18:11:39;28.55;;;4.85;;